sensor_id;sensor_type;location;lat;lon;timestamp;P1;durP1;ratioP1;P2;durP2;ratioP2
73959;SDS011;62316;48.920;2.342;2022-10-16T00:01:41;1.00;;;1.00;;
73959;SDS011;62316;48.920;2.342;2022-10-16T00:04:06;1.67;;;1.67;;
73959;SDS011;62316;48.920;2.342;2022-10-16T00:06:32;1.33;;;1.33;;
73959;SDS011;62316;48.920;2.342;2022-10-16T00:08:57;1.67;;;1.67;;
73959;SDS011;62316;48.920;2.342;2022-10-16T00:11:27;3.00;;;3.00;;
73959;SDS011;62316;48.920;2.342;2022-10-16T00:13:55;2.67;;;1.00;;
73959;SDS011;62316;48.920;2.342;2022-10-16T00:16:20;1.33;;;1.33;;
73959;SDS011;62316;48.920;2.342;2022-10-16T00:18:46;3.67;;;3.00;;
73959;SDS011;62316;48.920;2.342;2022-10-16T00:21:16;4.00;;;3.00;;
73959;SDS011;62316;48.920;2.342;2022-10-16T00:23:41;1.67;;;1.67;;
73959;SDS011;62316;48.920;2.342;2022-10-16T00:26:08;2.00;;;2.00;;
73959;SDS011;62316;48.920;2.342;2022-10-16T00:28:34;1.00;;;1.00;;
73959;SDS011;62316;48.920;2.342;2022-10-16T00:31:07;2.67;;;2.67;;
73959;SDS011;62316;48.920;2.342;2022-10-16T00:33:34;1.00;;;1.00;;
73959;SDS011;62316;48.920;2.342;2022-10-16T00:36:02;6.00;;;4.00;;
73959;SDS011;62316;48.920;2.342;2022-10-16T00:38:28;0.00;;;0.00;;
73959;SDS011;62316;48.920;2.342;2022-10-16T00:40:54;2.00;;;2.00;;
73959;SDS011;62316;48.920;2.342;2022-10-16T00:49:09;3.33;;;3.33;;
73959;SDS011;62316;48.920;2.342;2022-10-16T00:51:36;3.00;;;2.00;;
73959;SDS011;62316;48.920;2.342;2022-10-16T00:54:03;3.00;;;2.67;;
73959;SDS011;62316;48.920;2.342;2022-10-16T00:56:32;1.00;;;1.00;;
73959;SDS011;62316;48.920;2.342;2022-10-16T00:59:02;4.67;;;3.67;;
73959;SDS011;62316;48.920;2.342;2022-10-16T01:01:28;1.50;;;1.50;;
73959;SDS011;62316;48.920;2.342;2022-10-16T01:03:55;2.00;;;2.00;;
73959;SDS011;62316;48.920;2.342;2022-10-16T01:06:28;0.33;;;0.33;;
73959;SDS011;62316;48.920;2.342;2022-10-16T01:14:22;2.00;;;2.00;;
73959;SDS011;62316;48.920;2.342;2022-10-16T01:16:53;1.67;;;1.00;;
73959;SDS011;62316;48.920;2.342;2022-10-16T01:22:07;2.00;;;1.00;;
73959;SDS011;62316;48.920;2.342;2022-10-16T01:24:43;1.00;;;1.00;;
73959;SDS011;62316;48.920;2.342;2022-10-16T01:32:13;3.00;;;2.00;;
73959;SDS011;62316;48.920;2.342;2022-10-16T01:34:48;1.67;;;1.00;;
73959;SDS011;62316;48.920;2.342;2022-10-16T01:37:18;1.00;;;1.00;;
73959;SDS011;62316;48.920;2.342;2022-10-16T01:39:49;1.67;;;1.67;;
73959;SDS011;62316;48.920;2.342;2022-10-16T01:42:19;0.33;;;0.33;;
73959;SDS011;62316;48.920;2.342;2022-10-16T01:44:46;0.67;;;0.00;;
73959;SDS011;62316;48.920;2.342;2022-10-16T01:47:13;0.33;;;0.33;;
73959;SDS011;62316;48.920;2.342;2022-10-16T01:49:40;0.33;;;0.33;;
73959;SDS011;62316;48.920;2.342;2022-10-16T01:52:13;0.00;;;0.00;;
73959;SDS011;62316;48.920;2.342;2022-10-16T01:54:40;1.33;;;0.33;;
73959;SDS011;62316;48.920;2.342;2022-10-16T01:57:12;0.67;;;0.67;;
73959;SDS011;62316;48.920;2.342;2022-10-16T01:59:40;0.67;;;0.67;;
73959;SDS011;62316;48.920;2.342;2022-10-16T02:02:07;3.00;;;3.00;;
73959;SDS011;62316;48.920;2.342;2022-10-16T02:04:36;3.00;;;1.00;;
73959;SDS011;62316;48.920;2.342;2022-10-16T02:07:03;0.00;;;0.00;;
73959;SDS011;62316;48.920;2.342;2022-10-16T02:09:30;0.33;;;0.00;;
73959;SDS011;62316;48.920;2.342;2022-10-16T02:14:52;1.00;;;1.00;;
73959;SDS011;62316;48.920;2.342;2022-10-16T02:17:20;1.00;;;1.00;;
73959;SDS011;62316;48.920;2.342;2022-10-16T02:19:47;1.00;;;1.00;;
73959;SDS011;62316;48.920;2.342;2022-10-16T02:22:36;0.00;;;0.00;;
73959;SDS011;62316;48.920;2.342;2022-10-16T02:30:19;0.33;;;0.33;;
73959;SDS011;62316;48.920;2.342;2022-10-16T02:32:47;0.00;;;0.00;;
73959;SDS011;62316;48.920;2.342;2022-10-16T02:35:14;0.67;;;0.67;;
73959;SDS011;62316;48.920;2.342;2022-10-16T02:37:40;1.00;;;1.00;;
73959;SDS011;62316;48.920;2.342;2022-10-16T02:40:08;0.00;;;0.00;;
73959;SDS011;62316;48.920;2.342;2022-10-16T02:42:35;2.00;;;1.67;;
73959;SDS011;62316;48.920;2.342;2022-10-16T02:45:02;1.00;;;1.00;;
73959;SDS011;62316;48.920;2.342;2022-10-16T02:47:28;0.67;;;0.67;;
73959;SDS011;62316;48.920;2.342;2022-10-16T02:49:56;1.00;;;1.00;;
73959;SDS011;62316;48.920;2.342;2022-10-16T02:52:35;1.00;;;1.00;;
73959;SDS011;62316;48.920;2.342;2022-10-16T02:55:04;1.67;;;1.67;;
73959;SDS011;62316;48.920;2.342;2022-10-16T02:57:31;0.67;;;0.67;;
73959;SDS011;62316;48.920;2.342;2022-10-16T03:00:02;0.00;;;0.00;;
73959;SDS011;62316;48.920;2.342;2022-10-16T03:02:30;0.00;;;0.00;;
73959;SDS011;62316;48.920;2.342;2022-10-16T03:04:56;0.33;;;0.33;;
73959;SDS011;62316;48.920;2.342;2022-10-16T03:07:24;0.00;;;0.00;;
73959;SDS011;62316;48.920;2.342;2022-10-16T03:09:49;0.00;;;0.00;;
73959;SDS011;62316;48.920;2.342;2022-10-16T03:12:15;1.00;;;1.00;;
73959;SDS011;62316;48.920;2.342;2022-10-16T03:14:44;0.00;;;0.00;;
73959;SDS011;62316;48.920;2.342;2022-10-16T03:17:10;1.00;;;0.00;;
73959;SDS011;62316;48.920;2.342;2022-10-16T03:19:37;0.67;;;0.67;;
73959;SDS011;62316;48.920;2.342;2022-10-16T03:22:03;1.00;;;1.00;;
73959;SDS011;62316;48.920;2.342;2022-10-16T03:24:29;0.00;;;0.00;;
73959;SDS011;62316;48.920;2.342;2022-10-16T03:26:56;0.00;;;0.00;;
73959;SDS011;62316;48.920;2.342;2022-10-16T03:29:21;0.00;;;0.00;;
73959;SDS011;62316;48.920;2.342;2022-10-16T03:32:00;1.00;;;1.00;;
73959;SDS011;62316;48.920;2.342;2022-10-16T03:34:26;0.00;;;0.00;;
73959;SDS011;62316;48.920;2.342;2022-10-16T03:36:51;0.00;;;0.00;;
73959;SDS011;62316;48.920;2.342;2022-10-16T03:39:18;1.00;;;1.00;;
73959;SDS011;62316;48.920;2.342;2022-10-16T03:41:43;0.00;;;0.00;;
73959;SDS011;62316;48.920;2.342;2022-10-16T03:44:08;0.00;;;0.00;;
73959;SDS011;62316;48.920;2.342;2022-10-16T03:46:35;1.00;;;0.00;;
73959;SDS011;62316;48.920;2.342;2022-10-16T03:49:01;0.00;;;0.00;;
73959;SDS011;62316;48.920;2.342;2022-10-16T03:51:27;1.00;;;0.00;;
73959;SDS011;62316;48.920;2.342;2022-10-16T03:53:53;0.00;;;0.00;;
73959;SDS011;62316;48.920;2.342;2022-10-16T03:56:20;0.00;;;0.00;;
73959;SDS011;62316;48.920;2.342;2022-10-16T03:58:46;1.00;;;1.00;;
73959;SDS011;62316;48.920;2.342;2022-10-16T04:01:13;0.33;;;0.00;;
73959;SDS011;62316;48.920;2.342;2022-10-16T04:03:42;0.00;;;0.00;;
73959;SDS011;62316;48.920;2.342;2022-10-16T04:06:08;0.00;;;0.00;;
73959;SDS011;62316;48.920;2.342;2022-10-16T04:08:39;0.33;;;0.33;;
73959;SDS011;62316;48.920;2.342;2022-10-16T04:11:07;0.00;;;0.00;;
73959;SDS011;62316;48.920;2.342;2022-10-16T04:13:33;0.00;;;0.00;;
73959;SDS011;62316;48.920;2.342;2022-10-16T04:16:02;3.33;;;3.33;;
73959;SDS011;62316;48.920;2.342;2022-10-16T04:18:28;1.00;;;1.00;;
73959;SDS011;62316;48.920;2.342;2022-10-16T04:21:05;1.33;;;1.00;;
73959;SDS011;62316;48.920;2.342;2022-10-16T04:23:33;0.00;;;0.00;;
73959;SDS011;62316;48.920;2.342;2022-10-16T04:25:59;1.67;;;0.67;;
73959;SDS011;62316;48.920;2.342;2022-10-16T04:28:27;0.00;;;0.00;;
73959;SDS011;62316;48.920;2.342;2022-10-16T04:30:54;0.00;;;0.00;;
73959;SDS011;62316;48.920;2.342;2022-10-16T04:33:19;0.00;;;0.00;;
73959;SDS011;62316;48.920;2.342;2022-10-16T04:35:45;2.00;;;2.00;;
73959;SDS011;62316;48.920;2.342;2022-10-16T04:38:12;0.00;;;0.00;;
73959;SDS011;62316;48.920;2.342;2022-10-16T04:40:39;0.00;;;0.00;;
73959;SDS011;62316;48.920;2.342;2022-10-16T04:43:05;0.00;;;0.00;;
73959;SDS011;62316;48.920;2.342;2022-10-16T04:45:32;0.00;;;0.00;;
73959;SDS011;62316;48.920;2.342;2022-10-16T04:47:59;0.67;;;0.00;;
73959;SDS011;62316;48.920;2.342;2022-10-16T04:50:25;1.00;;;0.00;;
73959;SDS011;62316;48.920;2.342;2022-10-16T04:52:52;0.00;;;0.00;;
73959;SDS011;62316;48.920;2.342;2022-10-16T04:55:17;0.00;;;0.00;;
73959;SDS011;62316;48.920;2.342;2022-10-16T04:57:45;0.00;;;0.00;;
73959;SDS011;62316;48.920;2.342;2022-10-16T05:00:14;0.00;;;0.00;;
73959;SDS011;62316;48.920;2.342;2022-10-16T05:02:39;0.00;;;0.00;;
73959;SDS011;62316;48.920;2.342;2022-10-16T05:05:06;1.00;;;1.00;;
73959;SDS011;62316;48.920;2.342;2022-10-16T05:07:36;1.00;;;1.00;;
73959;SDS011;62316;48.920;2.342;2022-10-16T05:10:01;1.00;;;1.00;;
73959;SDS011;62316;48.920;2.342;2022-10-16T05:12:27;1.00;;;0.00;;
73959;SDS011;62316;48.920;2.342;2022-10-16T05:14:54;0.00;;;0.00;;
73959;SDS011;62316;48.920;2.342;2022-10-16T05:17:23;0.00;;;0.00;;
73959;SDS011;62316;48.920;2.342;2022-10-16T05:19:49;0.33;;;0.33;;
73959;SDS011;62316;48.920;2.342;2022-10-16T05:22:14;0.00;;;0.00;;
73959;SDS011;62316;48.920;2.342;2022-10-16T05:24:39;0.00;;;0.00;;
73959;SDS011;62316;48.920;2.342;2022-10-16T05:27:09;0.00;;;0.00;;
73959;SDS011;62316;48.920;2.342;2022-10-16T05:29:35;0.00;;;0.00;;
73959;SDS011;62316;48.920;2.342;2022-10-16T05:32:01;0.00;;;0.00;;
73959;SDS011;62316;48.920;2.342;2022-10-16T05:34:26;0.00;;;0.00;;
73959;SDS011;62316;48.920;2.342;2022-10-16T05:36:51;0.00;;;0.00;;
73959;SDS011;62316;48.920;2.342;2022-10-16T05:39:17;0.00;;;0.00;;
73959;SDS011;62316;48.920;2.342;2022-10-16T05:41:42;0.00;;;0.00;;
73959;SDS011;62316;48.920;2.342;2022-10-16T05:44:08;0.00;;;0.00;;
73959;SDS011;62316;48.920;2.342;2022-10-16T05:46:34;0.00;;;0.00;;
73959;SDS011;62316;48.920;2.342;2022-10-16T05:49:02;0.00;;;0.00;;
73959;SDS011;62316;48.920;2.342;2022-10-16T05:51:29;0.00;;;0.00;;
73959;SDS011;62316;48.920;2.342;2022-10-16T05:53:58;2.00;;;0.67;;
73959;SDS011;62316;48.920;2.342;2022-10-16T05:56:24;0.67;;;0.67;;
73959;SDS011;62316;48.920;2.342;2022-10-16T05:58:52;2.00;;;1.00;;
73959;SDS011;62316;48.920;2.342;2022-10-16T06:01:21;0.67;;;0.67;;
73959;SDS011;62316;48.920;2.342;2022-10-16T06:03:52;1.00;;;0.00;;
73959;SDS011;62316;48.920;2.342;2022-10-16T06:06:19;0.00;;;0.00;;
73959;SDS011;62316;48.920;2.342;2022-10-16T06:08:45;1.00;;;1.00;;
73959;SDS011;62316;48.920;2.342;2022-10-16T06:11:13;0.00;;;0.00;;
73959;SDS011;62316;48.920;2.342;2022-10-16T06:13:42;1.00;;;1.00;;
73959;SDS011;62316;48.920;2.342;2022-10-16T06:16:10;3.00;;;3.00;;
73959;SDS011;62316;48.920;2.342;2022-10-16T06:18:37;0.00;;;0.00;;
73959;SDS011;62316;48.920;2.342;2022-10-16T06:21:09;1.00;;;1.00;;
73959;SDS011;62316;48.920;2.342;2022-10-16T06:23:37;0.00;;;0.00;;
73959;SDS011;62316;48.920;2.342;2022-10-16T06:26:07;0.00;;;0.00;;
73959;SDS011;62316;48.920;2.342;2022-10-16T06:28:33;0.00;;;0.00;;
73959;SDS011;62316;48.920;2.342;2022-10-16T06:31:00;0.00;;;0.00;;
73959;SDS011;62316;48.920;2.342;2022-10-16T06:33:29;1.00;;;1.00;;
73959;SDS011;62316;48.920;2.342;2022-10-16T06:36:06;0.00;;;0.00;;
73959;SDS011;62316;48.920;2.342;2022-10-16T06:38:31;0.00;;;0.00;;
73959;SDS011;62316;48.920;2.342;2022-10-16T06:40:58;1.00;;;1.00;;
73959;SDS011;62316;48.920;2.342;2022-10-16T06:43:24;2.00;;;2.00;;
73959;SDS011;62316;48.920;2.342;2022-10-16T06:45:54;1.67;;;1.67;;
73959;SDS011;62316;48.920;2.342;2022-10-16T06:48:20;1.33;;;1.00;;
73959;SDS011;62316;48.920;2.342;2022-10-16T06:50:56;1.00;;;1.00;;
73959;SDS011;62316;48.920;2.342;2022-10-16T06:53:22;1.67;;;1.00;;
73959;SDS011;62316;48.920;2.342;2022-10-16T06:55:56;1.67;;;0.67;;
73959;SDS011;62316;48.920;2.342;2022-10-16T06:58:23;1.67;;;1.33;;
73959;SDS011;62316;48.920;2.342;2022-10-16T07:00:54;1.00;;;1.00;;
73959;SDS011;62316;48.920;2.342;2022-10-16T07:03:21;0.00;;;0.00;;
73959;SDS011;62316;48.920;2.342;2022-10-16T07:05:47;0.67;;;0.33;;
73959;SDS011;62316;48.920;2.342;2022-10-16T07:08:12;0.00;;;0.00;;
73959;SDS011;62316;48.920;2.342;2022-10-16T07:10:38;0.00;;;0.00;;
73959;SDS011;62316;48.920;2.342;2022-10-16T07:13:03;1.00;;;1.00;;
73959;SDS011;62316;48.920;2.342;2022-10-16T07:15:28;1.00;;;0.00;;
73959;SDS011;62316;48.920;2.342;2022-10-16T07:17:53;1.00;;;1.00;;
73959;SDS011;62316;48.920;2.342;2022-10-16T07:20:19;0.00;;;0.00;;
73959;SDS011;62316;48.920;2.342;2022-10-16T07:22:45;0.67;;;0.67;;
73959;SDS011;62316;48.920;2.342;2022-10-16T07:25:11;0.00;;;0.00;;
73959;SDS011;62316;48.920;2.342;2022-10-16T07:27:36;1.00;;;0.00;;
73959;SDS011;62316;48.920;2.342;2022-10-16T07:30:02;0.00;;;0.00;;
73959;SDS011;62316;48.920;2.342;2022-10-16T07:32:28;3.00;;;2.00;;
73959;SDS011;62316;48.920;2.342;2022-10-16T07:34:54;2.00;;;2.00;;
73959;SDS011;62316;48.920;2.342;2022-10-16T07:37:20;1.00;;;1.00;;
73959;SDS011;62316;48.920;2.342;2022-10-16T07:39:46;3.00;;;3.00;;
73959;SDS011;62316;48.920;2.342;2022-10-16T07:42:11;1.67;;;0.33;;
73959;SDS011;62316;48.920;2.342;2022-10-16T07:44:36;0.00;;;0.00;;
73959;SDS011;62316;48.920;2.342;2022-10-16T07:47:02;0.00;;;0.00;;
73959;SDS011;62316;48.920;2.342;2022-10-16T07:49:27;0.00;;;0.00;;
73959;SDS011;62316;48.920;2.342;2022-10-16T07:51:53;1.00;;;1.00;;
73959;SDS011;62316;48.920;2.342;2022-10-16T07:54:19;2.67;;;2.67;;
73959;SDS011;62316;48.920;2.342;2022-10-16T07:56:45;1.33;;;0.67;;
73959;SDS011;62316;48.920;2.342;2022-10-16T07:59:13;0.00;;;0.00;;
73959;SDS011;62316;48.920;2.342;2022-10-16T08:01:38;1.00;;;1.00;;
73959;SDS011;62316;48.920;2.342;2022-10-16T08:04:04;1.00;;;1.00;;
73959;SDS011;62316;48.920;2.342;2022-10-16T08:06:30;1.00;;;1.00;;
73959;SDS011;62316;48.920;2.342;2022-10-16T08:09:00;0.00;;;0.00;;
73959;SDS011;62316;48.920;2.342;2022-10-16T08:11:25;0.00;;;0.00;;
73959;SDS011;62316;48.920;2.342;2022-10-16T08:13:50;0.00;;;0.00;;
73959;SDS011;62316;48.920;2.342;2022-10-16T08:16:16;1.00;;;1.00;;
73959;SDS011;62316;48.920;2.342;2022-10-16T08:18:42;0.67;;;0.67;;
73959;SDS011;62316;48.920;2.342;2022-10-16T08:21:11;1.00;;;1.00;;
73959;SDS011;62316;48.920;2.342;2022-10-16T08:23:37;1.33;;;1.00;;
73959;SDS011;62316;48.920;2.342;2022-10-16T08:26:03;1.67;;;1.00;;
73959;SDS011;62316;48.920;2.342;2022-10-16T08:28:29;1.67;;;0.33;;
73959;SDS011;62316;48.920;2.342;2022-10-16T08:30:55;0.33;;;0.33;;
73959;SDS011;62316;48.920;2.342;2022-10-16T08:33:22;3.00;;;3.00;;
73959;SDS011;62316;48.920;2.342;2022-10-16T08:35:53;6.00;;;3.33;;
73959;SDS011;62316;48.920;2.342;2022-10-16T08:38:20;5.00;;;4.00;;
73959;SDS011;62316;48.920;2.342;2022-10-16T08:40:45;3.67;;;3.67;;
73959;SDS011;62316;48.920;2.342;2022-10-16T08:51:01;4.00;;;3.00;;
73959;SDS011;62316;48.920;2.342;2022-10-16T08:53:42;6.00;;;5.00;;
73959;SDS011;62316;48.920;2.342;2022-10-16T08:56:09;3.33;;;3.33;;
73959;SDS011;62316;48.920;2.342;2022-10-16T08:58:35;4.33;;;3.33;;
73959;SDS011;62316;48.920;2.342;2022-10-16T09:01:03;3.33;;;2.67;;
73959;SDS011;62316;48.920;2.342;2022-10-16T09:06:10;3.00;;;3.00;;
73959;SDS011;62316;48.920;2.342;2022-10-16T09:08:46;2.67;;;2.67;;
73959;SDS011;62316;48.920;2.342;2022-10-16T09:11:21;7.00;;;5.00;;
73959;SDS011;62316;48.920;2.342;2022-10-16T09:13:52;2.33;;;2.33;;
73959;SDS011;62316;48.920;2.342;2022-10-16T09:19:01;8.00;;;5.00;;
73959;SDS011;62316;48.920;2.342;2022-10-16T09:21:30;5.33;;;5.00;;
73959;SDS011;62316;48.920;2.342;2022-10-16T09:24:00;4.00;;;4.00;;
73959;SDS011;62316;48.920;2.342;2022-10-16T09:26:29;4.67;;;4.67;;
73959;SDS011;62316;48.920;2.342;2022-10-16T09:28:55;4.67;;;4.67;;
73959;SDS011;62316;48.920;2.342;2022-10-16T09:31:21;5.67;;;5.33;;
73959;SDS011;62316;48.920;2.342;2022-10-16T09:33:52;5.67;;;5.67;;
73959;SDS011;62316;48.920;2.342;2022-10-16T09:36:18;4.00;;;4.00;;
73959;SDS011;62316;48.920;2.342;2022-10-16T09:38:44;4.67;;;4.67;;
73959;SDS011;62316;48.920;2.342;2022-10-16T09:41:19;6.67;;;6.67;;
73959;SDS011;62316;48.920;2.342;2022-10-16T09:48:50;9.00;;;5.67;;
73959;SDS011;62316;48.920;2.342;2022-10-16T09:51:18;4.33;;;4.33;;
73959;SDS011;62316;48.920;2.342;2022-10-16T09:53:45;7.67;;;6.00;;
73959;SDS011;62316;48.920;2.342;2022-10-16T09:56:20;6.33;;;5.67;;
73959;SDS011;62316;48.920;2.342;2022-10-16T09:58:55;4.33;;;4.33;;
73959;SDS011;62316;48.920;2.342;2022-10-16T10:01:24;5.67;;;4.00;;
73959;SDS011;62316;48.920;2.342;2022-10-16T10:03:55;5.00;;;5.00;;
73959;SDS011;62316;48.920;2.342;2022-10-16T10:06:26;7.33;;;5.33;;
73959;SDS011;62316;48.920;2.342;2022-10-16T10:08:56;5.67;;;4.33;;
73959;SDS011;62316;48.920;2.342;2022-10-16T10:11:39;5.67;;;4.67;;
73959;SDS011;62316;48.920;2.342;2022-10-16T10:14:05;2.00;;;2.00;;
73959;SDS011;62316;48.920;2.342;2022-10-16T10:16:31;0.00;;;0.00;;
73959;SDS011;62316;48.920;2.342;2022-10-16T10:19:00;5.00;;;3.00;;
73959;SDS011;62316;48.920;2.342;2022-10-16T10:21:25;2.33;;;2.33;;
73959;SDS011;62316;48.920;2.342;2022-10-16T10:23:57;3.67;;;1.67;;
73959;SDS011;62316;48.920;2.342;2022-10-16T10:26:24;3.67;;;3.67;;
73959;SDS011;62316;48.920;2.342;2022-10-16T10:34:11;3.00;;;2.00;;
73959;SDS011;62316;48.920;2.342;2022-10-16T10:36:43;2.67;;;1.00;;
73959;SDS011;62316;48.920;2.342;2022-10-16T10:39:23;3.33;;;2.00;;
73959;SDS011;62316;48.920;2.342;2022-10-16T10:52:08;1.67;;;1.67;;
73959;SDS011;62316;48.920;2.342;2022-10-16T10:54:45;1.33;;;1.33;;
73959;SDS011;62316;48.920;2.342;2022-10-16T11:00:07;3.33;;;1.67;;
73959;SDS011;62316;48.920;2.342;2022-10-16T11:07:52;1.00;;;1.00;;
73959;SDS011;62316;48.920;2.342;2022-10-16T11:10:20;2.00;;;2.00;;
73959;SDS011;62316;48.920;2.342;2022-10-16T11:12:48;1.00;;;1.00;;
73959;SDS011;62316;48.920;2.342;2022-10-16T11:15:19;2.00;;;0.67;;
73959;SDS011;62316;48.920;2.342;2022-10-16T11:20:22;1.00;;;1.00;;
73959;SDS011;62316;48.920;2.342;2022-10-16T11:22:50;0.00;;;0.00;;
73959;SDS011;62316;48.920;2.342;2022-10-16T11:27:54;0.00;;;0.00;;
73959;SDS011;62316;48.920;2.342;2022-10-16T11:30:24;1.00;;;1.00;;
73959;SDS011;62316;48.920;2.342;2022-10-16T11:33:10;1.00;;;1.00;;
73959;SDS011;62316;48.920;2.342;2022-10-16T11:35:50;1.00;;;1.00;;
73959;SDS011;62316;48.920;2.342;2022-10-16T11:40:59;1.33;;;1.33;;
73959;SDS011;62316;48.920;2.342;2022-10-16T11:43:34;1.00;;;1.00;;
73959;SDS011;62316;48.920;2.342;2022-10-16T11:46:04;1.33;;;1.33;;
73959;SDS011;62316;48.920;2.342;2022-10-16T11:48:35;1.00;;;1.00;;
73959;SDS011;62316;48.920;2.342;2022-10-16T11:51:14;0.67;;;0.67;;
73959;SDS011;62316;48.920;2.342;2022-10-16T11:53:58;1.00;;;1.00;;
73959;SDS011;62316;48.920;2.342;2022-10-16T11:56:25;1.33;;;1.33;;
73959;SDS011;62316;48.920;2.342;2022-10-16T12:02:04;0.67;;;0.67;;
73959;SDS011;62316;48.920;2.342;2022-10-16T12:04:16;1.67;;;1.67;;
73959;SDS011;62316;48.920;2.342;2022-10-16T12:11:41;0.00;;;0.00;;
73959;SDS011;62316;48.920;2.342;2022-10-16T12:16:37;2.00;;;0.00;;
73959;SDS011;62316;48.920;2.342;2022-10-16T12:19:03;2.33;;;2.33;;
73959;SDS011;62316;48.920;2.342;2022-10-16T12:21:38;1.00;;;1.00;;
73959;SDS011;62316;48.920;2.342;2022-10-16T12:24:14;2.67;;;2.00;;
73959;SDS011;62316;48.920;2.342;2022-10-16T12:26:44;0.67;;;0.67;;
73959;SDS011;62316;48.920;2.342;2022-10-16T12:29:53;2.33;;;0.67;;
73959;SDS011;62316;48.920;2.342;2022-10-16T12:32:03;3.67;;;0.00;;
73959;SDS011;62316;48.920;2.342;2022-10-16T12:34:32;1.00;;;1.00;;
73959;SDS011;62316;48.920;2.342;2022-10-16T12:39:48;3.33;;;1.33;;
73959;SDS011;62316;48.920;2.342;2022-10-16T12:44:46;1.67;;;1.67;;
73959;SDS011;62316;48.920;2.342;2022-10-16T12:47:20;1.00;;;1.00;;
73959;SDS011;62316;48.920;2.342;2022-10-16T12:49:51;2.00;;;2.00;;
73959;SDS011;62316;48.920;2.342;2022-10-16T12:52:31;1.67;;;1.67;;
73959;SDS011;62316;48.920;2.342;2022-10-16T12:55:03;2.33;;;2.33;;
73959;SDS011;62316;48.920;2.342;2022-10-16T13:10:25;2.00;;;2.00;;
73959;SDS011;62316;48.920;2.342;2022-10-16T13:28:33;3.00;;;3.00;;
73959;SDS011;62316;48.920;2.342;2022-10-16T13:31:00;2.00;;;2.00;;
73959;SDS011;62316;48.920;2.342;2022-10-16T13:36:01;1.67;;;1.67;;
73959;SDS011;62316;48.920;2.342;2022-10-16T13:38:29;2.67;;;2.67;;
73959;SDS011;62316;48.920;2.342;2022-10-16T13:41:13;3.67;;;3.33;;
73959;SDS011;62316;48.920;2.342;2022-10-16T13:46:11;2.33;;;2.33;;
73959;SDS011;62316;48.920;2.342;2022-10-16T13:48:37;3.00;;;3.00;;
73959;SDS011;62316;48.920;2.342;2022-10-16T13:51:15;2.00;;;2.00;;
73959;SDS011;62316;48.920;2.342;2022-10-16T13:53:41;2.00;;;2.00;;
73959;SDS011;62316;48.920;2.342;2022-10-16T13:56:09;3.00;;;3.00;;
73959;SDS011;62316;48.920;2.342;2022-10-16T13:58:35;4.00;;;4.00;;
73959;SDS011;62316;48.920;2.342;2022-10-16T14:01:01;5.33;;;4.00;;
73959;SDS011;62316;48.920;2.342;2022-10-16T14:03:27;4.00;;;4.00;;
73959;SDS011;62316;48.920;2.342;2022-10-16T14:05:54;2.67;;;2.33;;
73959;SDS011;62316;48.920;2.342;2022-10-16T14:08:20;3.67;;;3.67;;
73959;SDS011;62316;48.920;2.342;2022-10-16T14:10:50;3.33;;;3.33;;
73959;SDS011;62316;48.920;2.342;2022-10-16T14:13:17;4.00;;;4.00;;
73959;SDS011;62316;48.920;2.342;2022-10-16T14:15:45;5.67;;;4.33;;
73959;SDS011;62316;48.920;2.342;2022-10-16T14:18:19;4.00;;;3.33;;
73959;SDS011;62316;48.920;2.342;2022-10-16T14:20:45;4.00;;;4.00;;
73959;SDS011;62316;48.920;2.342;2022-10-16T14:23:21;3.00;;;2.33;;
73959;SDS011;62316;48.920;2.342;2022-10-16T14:25:47;5.67;;;4.67;;
73959;SDS011;62316;48.920;2.342;2022-10-16T14:30:37;9.33;;;9.00;;
73959;SDS011;62316;48.920;2.342;2022-10-16T14:36:01;3.67;;;3.67;;
73959;SDS011;62316;48.920;2.342;2022-10-16T14:38:27;5.67;;;4.00;;
73959;SDS011;62316;48.920;2.342;2022-10-16T14:40:54;5.00;;;3.67;;
73959;SDS011;62316;48.920;2.342;2022-10-16T14:43:22;1.00;;;1.00;;
73959;SDS011;62316;48.920;2.342;2022-10-16T14:45:55;4.33;;;4.00;;
73959;SDS011;62316;48.920;2.342;2022-10-16T14:48:21;6.33;;;6.33;;
73959;SDS011;62316;48.920;2.342;2022-10-16T14:50:46;4.67;;;4.33;;
73959;SDS011;62316;48.920;2.342;2022-10-16T14:53:12;6.00;;;5.67;;
73959;SDS011;62316;48.920;2.342;2022-10-16T14:55:38;5.00;;;4.00;;
73959;SDS011;62316;48.920;2.342;2022-10-16T14:58:03;6.67;;;3.67;;
73959;SDS011;62316;48.920;2.342;2022-10-16T15:00:30;4.00;;;4.00;;
73959;SDS011;62316;48.920;2.342;2022-10-16T15:02:55;4.00;;;4.00;;
73959;SDS011;62316;48.920;2.342;2022-10-16T15:05:26;4.67;;;4.67;;
73959;SDS011;62316;48.920;2.342;2022-10-16T15:07:57;3.00;;;2.33;;
73959;SDS011;62316;48.920;2.342;2022-10-16T15:10:23;3.67;;;3.67;;
73959;SDS011;62316;48.920;2.342;2022-10-16T15:12:48;1.67;;;1.67;;
73959;SDS011;62316;48.920;2.342;2022-10-16T15:17:49;4.00;;;4.00;;
73959;SDS011;62316;48.920;2.342;2022-10-16T15:20:20;8.67;;;6.33;;
73959;SDS011;62316;48.920;2.342;2022-10-16T15:22:45;6.33;;;6.33;;
73959;SDS011;62316;48.920;2.342;2022-10-16T15:27:54;6.00;;;6.00;;
73959;SDS011;62316;48.920;2.342;2022-10-16T15:30:20;7.00;;;6.00;;
73959;SDS011;62316;48.920;2.342;2022-10-16T15:32:45;5.33;;;5.33;;
73959;SDS011;62316;48.920;2.342;2022-10-16T15:35:11;6.67;;;5.33;;
73959;SDS011;62316;48.920;2.342;2022-10-16T15:37:38;5.00;;;3.00;;
73959;SDS011;62316;48.920;2.342;2022-10-16T15:40:03;6.33;;;5.67;;
73959;SDS011;62316;48.920;2.342;2022-10-16T15:42:29;9.33;;;7.33;;
73959;SDS011;62316;48.920;2.342;2022-10-16T15:44:54;5.33;;;5.33;;
73959;SDS011;62316;48.920;2.342;2022-10-16T15:47:19;7.33;;;5.67;;
73959;SDS011;62316;48.920;2.342;2022-10-16T15:49:45;4.00;;;4.00;;
73959;SDS011;62316;48.920;2.342;2022-10-16T15:52:10;23.25;;;20.50;;
73959;SDS011;62316;48.920;2.342;2022-10-16T15:54:36;5.33;;;5.33;;
73959;SDS011;62316;48.920;2.342;2022-10-16T15:57:01;7.00;;;7.00;;
73959;SDS011;62316;48.920;2.342;2022-10-16T15:59:26;6.00;;;6.00;;
73959;SDS011;62316;48.920;2.342;2022-10-16T16:01:51;7.00;;;6.00;;
73959;SDS011;62316;48.920;2.342;2022-10-16T16:04:17;4.33;;;4.33;;
73959;SDS011;62316;48.920;2.342;2022-10-16T16:06:43;8.00;;;7.33;;
73959;SDS011;62316;48.920;2.342;2022-10-16T16:09:10;6.00;;;6.00;;
73959;SDS011;62316;48.920;2.342;2022-10-16T16:11:35;6.33;;;6.00;;
73959;SDS011;62316;48.920;2.342;2022-10-16T16:14:03;5.00;;;5.00;;
73959;SDS011;62316;48.920;2.342;2022-10-16T16:16:29;5.67;;;5.67;;
73959;SDS011;62316;48.920;2.342;2022-10-16T16:18:54;6.67;;;6.00;;
73959;SDS011;62316;48.920;2.342;2022-10-16T16:21:20;6.00;;;6.00;;
73959;SDS011;62316;48.920;2.342;2022-10-16T16:23:46;9.00;;;9.00;;
73959;SDS011;62316;48.920;2.342;2022-10-16T16:26:12;9.33;;;8.00;;
73959;SDS011;62316;48.920;2.342;2022-10-16T16:28:38;10.67;;;9.67;;
73959;SDS011;62316;48.920;2.342;2022-10-16T16:31:04;9.00;;;8.00;;
73959;SDS011;62316;48.920;2.342;2022-10-16T16:33:29;9.33;;;6.33;;
73959;SDS011;62316;48.920;2.342;2022-10-16T16:35:59;7.67;;;7.67;;
73959;SDS011;62316;48.920;2.342;2022-10-16T16:38:25;10.00;;;10.00;;
73959;SDS011;62316;48.920;2.342;2022-10-16T16:40:50;8.00;;;8.00;;
73959;SDS011;62316;48.920;2.342;2022-10-16T16:43:17;5.67;;;5.67;;
73959;SDS011;62316;48.920;2.342;2022-10-16T16:45:42;16.67;;;14.67;;
73959;SDS011;62316;48.920;2.342;2022-10-16T16:48:07;11.33;;;11.33;;
73959;SDS011;62316;48.920;2.342;2022-10-16T16:50:38;9.67;;;7.67;;
73959;SDS011;62316;48.920;2.342;2022-10-16T16:53:03;11.33;;;9.00;;
73959;SDS011;62316;48.920;2.342;2022-10-16T16:55:29;8.33;;;6.33;;
73959;SDS011;62316;48.920;2.342;2022-10-16T16:57:54;9.67;;;9.67;;
73959;SDS011;62316;48.920;2.342;2022-10-16T17:00:19;8.00;;;8.00;;
73959;SDS011;62316;48.920;2.342;2022-10-16T17:02:48;10.33;;;10.00;;
73959;SDS011;62316;48.920;2.342;2022-10-16T17:05:13;11.00;;;11.00;;
73959;SDS011;62316;48.920;2.342;2022-10-16T17:07:38;9.67;;;7.33;;
73959;SDS011;62316;48.920;2.342;2022-10-16T17:10:05;9.00;;;8.67;;